sensor_id;sensor_type;location;lat;lon;timestamp;temperature;humidity
35603;DHT22;21725;50.836;4.368;2022-10-31T00:01:21;18.20;99.90
35603;DHT22;21725;50.836;4.368;2022-10-31T00:03:47;18.30;99.90
35603;DHT22;21725;50.836;4.368;2022-10-31T00:06:14;18.30;99.90
35603;DHT22;21725;50.836;4.368;2022-10-31T00:08:40;18.40;99.90
35603;DHT22;21725;50.836;4.368;2022-10-31T00:11:10;18.40;99.90
35603;DHT22;21725;50.836;4.368;2022-10-31T00:13:35;18.40;99.90
35603;DHT22;21725;50.836;4.368;2022-10-31T00:16:05;18.40;99.90
35603;DHT22;21725;50.836;4.368;2022-10-31T00:18:31;18.40;99.90
35603;DHT22;21725;50.836;4.368;2022-10-31T00:21:02;18.30;99.90
35603;DHT22;21725;50.836;4.368;2022-10-31T00:23:28;18.20;99.90
35603;DHT22;21725;50.836;4.368;2022-10-31T00:26:03;18.10;99.90
35603;DHT22;21725;50.836;4.368;2022-10-31T00:28:33;18.20;99.90
35603;DHT22;21725;50.836;4.368;2022-10-31T00:31:04;18.20;99.90
35603;DHT22;21725;50.836;4.368;2022-10-31T00:33:30;18.20;99.90
35603;DHT22;21725;50.836;4.368;2022-10-31T00:35:56;18.10;99.90
35603;DHT22;21725;50.836;4.368;2022-10-31T00:38:22;18.10;99.90
35603;DHT22;21725;50.836;4.368;2022-10-31T00:40:50;18.00;99.90
35603;DHT22;21725;50.836;4.368;2022-10-31T00:43:16;17.80;99.90
35603;DHT22;21725;50.836;4.368;2022-10-31T00:45:45;17.90;99.90
35603;DHT22;21725;50.836;4.368;2022-10-31T00:48:15;17.80;99.90
35603;DHT22;21725;50.836;4.368;2022-10-31T00:50:42;17.90;99.90
35603;DHT22;21725;50.836;4.368;2022-10-31T00:53:08;17.80;99.90
35603;DHT22;21725;50.836;4.368;2022-10-31T00:55:33;17.80;99.90
35603;DHT22;21725;50.836;4.368;2022-10-31T00:58:06;17.70;99.90
35603;DHT22;21725;50.836;4.368;2022-10-31T01:00:32;17.70;99.90
35603;DHT22;21725;50.836;4.368;2022-10-31T01:02:58;17.70;99.90
35603;DHT22;21725;50.836;4.368;2022-10-31T01:05:24;17.80;99.90
35603;DHT22;21725;50.836;4.368;2022-10-31T01:07:49;17.60;99.90
35603;DHT22;21725;50.836;4.368;2022-10-31T01:10:23;17.50;99.90
35603;DHT22;21725;50.836;4.368;2022-10-31T01:12:49;17.50;99.90
35603;DHT22;21725;50.836;4.368;2022-10-31T01:15:21;17.50;99.90
35603;DHT22;21725;50.836;4.368;2022-10-31T01:17:47;17.60;99.90
35603;DHT22;21725;50.836;4.368;2022-10-31T01:20:14;17.70;99.90
35603;DHT22;21725;50.836;4.368;2022-10-31T01:22:42;17.70;99.90
35603;DHT22;21725;50.836;4.368;2022-10-31T01:25:09;17.70;99.90
35603;DHT22;21725;50.836;4.368;2022-10-31T01:27:35;17.60;99.90
35603;DHT22;21725;50.836;4.368;2022-10-31T01:30:04;17.70;99.90
35603;DHT22;21725;50.836;4.368;2022-10-31T01:32:30;17.60;99.90
35603;DHT22;21725;50.836;4.368;2022-10-31T01:34:56;17.60;99.90
35603;DHT22;21725;50.836;4.368;2022-10-31T01:37:24;17.50;99.90
35603;DHT22;21725;50.836;4.368;2022-10-31T01:39:50;17.50;99.90
35603;DHT22;21725;50.836;4.368;2022-10-31T01:42:19;17.50;99.90
35603;DHT22;21725;50.836;4.368;2022-10-31T01:44:54;17.50;99.90
35603;DHT22;21725;50.836;4.368;2022-10-31T01:47:35;17.40;99.90
35603;DHT22;21725;50.836;4.368;2022-10-31T01:50:19;17.40;99.90
35603;DHT22;21725;50.836;4.368;2022-10-31T01:52:49;17.60;99.90
35603;DHT22;21725;50.836;4.368;2022-10-31T01:55:25;17.60;99.90
35603;DHT22;21725;50.836;4.368;2022-10-31T01:58:13;17.50;99.90
35603;DHT22;21725;50.836;4.368;2022-10-31T02:00:43;17.40;99.90
35603;DHT22;21725;50.836;4.368;2022-10-31T02:03:10;17.40;99.90
35603;DHT22;21725;50.836;4.368;2022-10-31T02:05:37;17.60;99.90
35603;DHT22;21725;50.836;4.368;2022-10-31T02:08:18;17.50;99.90
35603;DHT22;21725;50.836;4.368;2022-10-31T02:10:45;17.60;99.90
35603;DHT22;21725;50.836;4.368;2022-10-31T02:13:13;17.50;99.90
35603;DHT22;21725;50.836;4.368;2022-10-31T02:15:40;17.40;99.90
35603;DHT22;21725;50.836;4.368;2022-10-31T02:18:07;17.30;99.90
35603;DHT22;21725;50.836;4.368;2022-10-31T02:20:46;17.30;99.90
35603;DHT22;21725;50.836;4.368;2022-10-31T02:26:29;17.10;99.90
35603;DHT22;21725;50.836;4.368;2022-10-31T02:29:17;17.20;99.90
35603;DHT22;21725;50.836;4.368;2022-10-31T02:32:04;17.20;99.90
35603;DHT22;21725;50.836;4.368;2022-10-31T02:42:57;17.30;99.90
35603;DHT22;21725;50.836;4.368;2022-10-31T02:48:03;17.30;99.90
35603;DHT22;21725;50.836;4.368;2022-10-31T02:50:34;17.30;99.90
35603;DHT22;21725;50.836;4.368;2022-10-31T02:53:01;17.20;99.90
35603;DHT22;21725;50.836;4.368;2022-10-31T02:58:08;17.20;99.90
35603;DHT22;21725;50.836;4.368;2022-10-31T03:03:30;17.10;99.90
35603;DHT22;21725;50.836;4.368;2022-10-31T03:06:20;17.00;99.90
35603;DHT22;21725;50.836;4.368;2022-10-31T03:15:26;16.90;99.90
35603;DHT22;21725;50.836;4.368;2022-10-31T03:18:28;17.00;99.90
35603;DHT22;21725;50.836;4.368;2022-10-31T03:23:27;17.00;99.90
35603;DHT22;21725;50.836;4.368;2022-10-31T03:25:54;17.10;99.90
35603;DHT22;21725;50.836;4.368;2022-10-31T03:28:25;17.10;99.90
35603;DHT22;21725;50.836;4.368;2022-10-31T03:30:54;17.20;99.90
35603;DHT22;21725;50.836;4.368;2022-10-31T03:33:32;17.30;99.90
35603;DHT22;21725;50.836;4.368;2022-10-31T03:36:04;17.30;99.90
35603;DHT22;21725;50.836;4.368;2022-10-31T03:38:41;17.20;99.90
35603;DHT22;21725;50.836;4.368;2022-10-31T03:41:13;17.10;99.90
35603;DHT22;21725;50.836;4.368;2022-10-31T03:43:46;17.20;99.90
35603;DHT22;21725;50.836;4.368;2022-10-31T03:46:13;17.10;99.90
35603;DHT22;21725;50.836;4.368;2022-10-31T03:48:42;17.00;99.90
35603;DHT22;21725;50.836;4.368;2022-10-31T03:56:55;17.00;99.90
35603;DHT22;21725;50.836;4.368;2022-10-31T03:59:32;17.10;99.90
35603;DHT22;21725;50.836;4.368;2022-10-31T04:02:11;17.10;99.90
35603;DHT22;21725;50.836;4.368;2022-10-31T04:04:41;16.90;99.90
35603;DHT22;21725;50.836;4.368;2022-10-31T04:07:10;16.80;99.90
35603;DHT22;21725;50.836;4.368;2022-10-31T04:09:39;16.70;99.90
35603;DHT22;21725;50.836;4.368;2022-10-31T04:12:10;16.80;99.90
35603;DHT22;21725;50.836;4.368;2022-10-31T04:14:46;16.90;99.90
35603;DHT22;21725;50.836;4.368;2022-10-31T04:17:16;16.80;99.90
35603;DHT22;21725;50.836;4.368;2022-10-31T04:19:42;16.80;99.90
35603;DHT22;21725;50.836;4.368;2022-10-31T04:22:08;16.80;99.90
35603;DHT22;21725;50.836;4.368;2022-10-31T04:24:37;16.80;99.90
35603;DHT22;21725;50.836;4.368;2022-10-31T04:27:04;16.90;99.90
35603;DHT22;21725;50.836;4.368;2022-10-31T04:29:35;16.80;99.90
35603;DHT22;21725;50.836;4.368;2022-10-31T04:32:07;16.70;99.90
35603;DHT22;21725;50.836;4.368;2022-10-31T04:34:33;16.60;99.90
35603;DHT22;21725;50.836;4.368;2022-10-31T04:36:58;16.60;99.90
35603;DHT22;21725;50.836;4.368;2022-10-31T04:39:27;16.60;99.90
35603;DHT22;21725;50.836;4.368;2022-10-31T04:41:53;16.50;99.90
35603;DHT22;21725;50.836;4.368;2022-10-31T04:44:18;16.50;99.90
35603;DHT22;21725;50.836;4.368;2022-10-31T04:46:44;16.50;99.90
35603;DHT22;21725;50.836;4.368;2022-10-31T04:49:10;16.60;99.90
35603;DHT22;21725;50.836;4.368;2022-10-31T04:51:36;16.60;99.90
35603;DHT22;21725;50.836;4.368;2022-10-31T04:54:04;16.50;99.90
35603;DHT22;21725;50.836;4.368;2022-10-31T04:56:33;16.40;99.90
35603;DHT22;21725;50.836;4.368;2022-10-31T04:59:01;16.40;99.90
35603;DHT22;21725;50.836;4.368;2022-10-31T05:01:30;16.40;99.90
35603;DHT22;21725;50.836;4.368;2022-10-31T05:03:56;16.50;99.90
35603;DHT22;21725;50.836;4.368;2022-10-31T05:06:25;16.40;99.90
35603;DHT22;21725;50.836;4.368;2022-10-31T05:08:51;16.40;99.90
35603;DHT22;21725;50.836;4.368;2022-10-31T05:11:19;16.50;99.90
35603;DHT22;21725;50.836;4.368;2022-10-31T05:13:44;16.60;99.90
35603;DHT22;21725;50.836;4.368;2022-10-31T05:16:11;16.60;99.90
35603;DHT22;21725;50.836;4.368;2022-10-31T05:18:37;16.50;99.90
35603;DHT22;21725;50.836;4.368;2022-10-31T05:21:02;16.50;99.90
35603;DHT22;21725;50.836;4.368;2022-10-31T05:23:28;16.60;99.90
35603;DHT22;21725;50.836;4.368;2022-10-31T05:25:56;16.60;99.90
35603;DHT22;21725;50.836;4.368;2022-10-31T05:28:22;16.70;99.90
35603;DHT22;21725;50.836;4.368;2022-10-31T05:30:50;16.70;99.90
35603;DHT22;21725;50.836;4.368;2022-10-31T05:33:16;16.80;99.90
35603;DHT22;21725;50.836;4.368;2022-10-31T05:35:42;16.90;99.90
35603;DHT22;21725;50.836;4.368;2022-10-31T05:38:08;16.90;99.90
35603;DHT22;21725;50.836;4.368;2022-10-31T05:40:34;16.80;99.90
35603;DHT22;21725;50.836;4.368;2022-10-31T05:42:59;16.80;99.90
35603;DHT22;21725;50.836;4.368;2022-10-31T05:45:25;16.70;99.90
35603;DHT22;21725;50.836;4.368;2022-10-31T05:47:58;16.70;99.90
35603;DHT22;21725;50.836;4.368;2022-10-31T05:50:28;16.80;99.90
35603;DHT22;21725;50.836;4.368;2022-10-31T05:53:00;16.80;99.90
35603;DHT22;21725;50.836;4.368;2022-10-31T05:55:29;16.70;99.90
35603;DHT22;21725;50.836;4.368;2022-10-31T05:57:55;16.70;99.90
35603;DHT22;21725;50.836;4.368;2022-10-31T06:00:25;16.70;99.90
35603;DHT22;21725;50.836;4.368;2022-10-31T06:03:01;16.70;99.90
35603;DHT22;21725;50.836;4.368;2022-10-31T06:05:27;16.80;99.90
35603;DHT22;21725;50.836;4.368;2022-10-31T06:07:53;16.80;99.90
35603;DHT22;21725;50.836;4.368;2022-10-31T06:10:22;16.90;99.90
35603;DHT22;21725;50.836;4.368;2022-10-31T06:12:50;16.90;99.90
35603;DHT22;21725;50.836;4.368;2022-10-31T06:15:16;17.00;99.90
35603;DHT22;21725;50.836;4.368;2022-10-31T06:17:42;16.90;99.90
35603;DHT22;21725;50.836;4.368;2022-10-31T06:20:09;17.10;99.90
35603;DHT22;21725;50.836;4.368;2022-10-31T06:22:35;16.80;99.90
35603;DHT22;21725;50.836;4.368;2022-10-31T06:25:01;17.00;99.90
35603;DHT22;21725;50.836;4.368;2022-10-31T06:27:29;17.10;99.90
35603;DHT22;21725;50.836;4.368;2022-10-31T06:29:58;17.10;99.90
35603;DHT22;21725;50.836;4.368;2022-10-31T06:32:24;17.20;99.90
35603;DHT22;21725;50.836;4.368;2022-10-31T06:34:52;17.40;99.90
35603;DHT22;21725;50.836;4.368;2022-10-31T06:37:21;17.20;99.90
35603;DHT22;21725;50.836;4.368;2022-10-31T06:39:49;17.20;99.90
35603;DHT22;21725;50.836;4.368;2022-10-31T06:42:16;17.30;99.90
35603;DHT22;21725;50.836;4.368;2022-10-31T06:44:46;17.20;99.90
35603;DHT22;21725;50.836;4.368;2022-10-31T06:47:12;17.30;99.90
35603;DHT22;21725;50.836;4.368;2022-10-31T06:49:38;17.20;99.90
35603;DHT22;21725;50.836;4.368;2022-10-31T06:52:04;17.30;99.90
35603;DHT22;21725;50.836;4.368;2022-10-31T06:54:33;17.10;99.90
35603;DHT22;21725;50.836;4.368;2022-10-31T06:57:01;17.10;99.90
35603;DHT22;21725;50.836;4.368;2022-10-31T06:59:26;17.10;99.90
35603;DHT22;21725;50.836;4.368;2022-10-31T07:01:55;17.30;99.90
35603;DHT22;21725;50.836;4.368;2022-10-31T07:04:20;17.30;99.90
35603;DHT22;21725;50.836;4.368;2022-10-31T07:06:50;17.30;99.90
35603;DHT22;21725;50.836;4.368;2022-10-31T07:09:19;17.30;99.90
35603;DHT22;21725;50.836;4.368;2022-10-31T07:11:44;17.30;99.90
35603;DHT22;21725;50.836;4.368;2022-10-31T07:14:10;17.30;99.90
35603;DHT22;21725;50.836;4.368;2022-10-31T07:16:36;17.10;99.90
35603;DHT22;21725;50.836;4.368;2022-10-31T07:19:04;17.50;99.90
35603;DHT22;21725;50.836;4.368;2022-10-31T07:21:29;17.30;99.90
35603;DHT22;21725;50.836;4.368;2022-10-31T07:23:55;17.20;99.90
35603;DHT22;21725;50.836;4.368;2022-10-31T07:26:21;17.20;99.90
35603;DHT22;21725;50.836;4.368;2022-10-31T07:28:47;17.10;99.90
35603;DHT22;21725;50.836;4.368;2022-10-31T07:31:13;17.20;99.90
35603;DHT22;21725;50.836;4.368;2022-10-31T07:33:44;17.30;99.90
35603;DHT22;21725;50.836;4.368;2022-10-31T07:36:10;17.30;99.90
35603;DHT22;21725;50.836;4.368;2022-10-31T07:38:39;17.40;99.90
35603;DHT22;21725;50.836;4.368;2022-10-31T07:41:05;17.40;99.90
35603;DHT22;21725;50.836;4.368;2022-10-31T07:43:41;17.30;99.90
35603;DHT22;21725;50.836;4.368;2022-10-31T07:46:07;17.30;99.90
35603;DHT22;21725;50.836;4.368;2022-10-31T07:48:32;17.30;99.90
35603;DHT22;21725;50.836;4.368;2022-10-31T07:51:03;17.30;99.90
35603;DHT22;21725;50.836;4.368;2022-10-31T07:53:32;17.30;99.90
35603;DHT22;21725;50.836;4.368;2022-10-31T07:56:05;17.40;99.90
35603;DHT22;21725;50.836;4.368;2022-10-31T07:58:34;17.50;99.90
35603;DHT22;21725;50.836;4.368;2022-10-31T08:01:00;17.50;99.90
35603;DHT22;21725;50.836;4.368;2022-10-31T08:03:26;17.70;99.90
35603;DHT22;21725;50.836;4.368;2022-10-31T08:05:52;17.70;99.90
35603;DHT22;21725;50.836;4.368;2022-10-31T08:08:21;17.80;99.90
35603;DHT22;21725;50.836;4.368;2022-10-31T08:11:00;17.90;99.90
35603;DHT22;21725;50.836;4.368;2022-10-31T08:13:27;17.90;99.90
35603;DHT22;21725;50.836;4.368;2022-10-31T08:15:53;17.80;99.90
35603;DHT22;21725;50.836;4.368;2022-10-31T08:18:50;17.70;99.90
35603;DHT22;21725;50.836;4.368;2022-10-31T08:21:29;17.90;99.90
35603;DHT22;21725;50.836;4.368;2022-10-31T08:23:55;18.00;99.90
35603;DHT22;21725;50.836;4.368;2022-10-31T08:26:21;18.00;99.90
35603;DHT22;21725;50.836;4.368;2022-10-31T08:28:49;18.10;99.90
35603;DHT22;21725;50.836;4.368;2022-10-31T08:31:17;18.10;99.90
35603;DHT22;21725;50.836;4.368;2022-10-31T08:33:44;18.10;99.90
35603;DHT22;21725;50.836;4.368;2022-10-31T08:36:14;18.00;99.90
35603;DHT22;21725;50.836;4.368;2022-10-31T08:38:48;18.00;99.90
35603;DHT22;21725;50.836;4.368;2022-10-31T08:41:14;17.90;99.90
35603;DHT22;21725;50.836;4.368;2022-10-31T08:43:40;17.90;99.90
35603;DHT22;21725;50.836;4.368;2022-10-31T08:46:06;18.30;99.90
35603;DHT22;21725;50.836;4.368;2022-10-31T08:48:32;18.00;99.90
35603;DHT22;21725;50.836;4.368;2022-10-31T08:50:59;18.00;99.90
35603;DHT22;21725;50.836;4.368;2022-10-31T08:53:27;18.20;99.90
35603;DHT22;21725;50.836;4.368;2022-10-31T08:55:56;18.40;99.90
35603;DHT22;21725;50.836;4.368;2022-10-31T08:58:23;18.60;99.90
35603;DHT22;21725;50.836;4.368;2022-10-31T09:00:51;18.70;99.90
35603;DHT22;21725;50.836;4.368;2022-10-31T09:03:29;18.70;99.90
35603;DHT22;21725;50.836;4.368;2022-10-31T09:06:01;18.80;99.90
35603;DHT22;21725;50.836;4.368;2022-10-31T09:08:30;18.90;99.90
35603;DHT22;21725;50.836;4.368;2022-10-31T09:10:57;18.90;99.90
35603;DHT22;21725;50.836;4.368;2022-10-31T09:13:23;18.70;99.90
35603;DHT22;21725;50.836;4.368;2022-10-31T09:15:51;18.60;99.90
35603;DHT22;21725;50.836;4.368;2022-10-31T09:18:20;18.50;99.90
35603;DHT22;21725;50.836;4.368;2022-10-31T09:20:52;18.40;99.90
35603;DHT22;21725;50.836;4.368;2022-10-31T09:23:40;18.30;99.90
35603;DHT22;21725;50.836;4.368;2022-10-31T09:26:07;18.30;99.90
35603;DHT22;21725;50.836;4.368;2022-10-31T09:28:33;18.60;99.90
35603;DHT22;21725;50.836;4.368;2022-10-31T09:30:59;18.60;99.90
35603;DHT22;21725;50.836;4.368;2022-10-31T09:33:31;18.50;99.90
35603;DHT22;21725;50.836;4.368;2022-10-31T09:35:59;18.80;99.90
35603;DHT22;21725;50.836;4.368;2022-10-31T09:38:28;18.70;99.90
35603;DHT22;21725;50.836;4.368;2022-10-31T09:49:22;18.80;99.90
35603;DHT22;21725;50.836;4.368;2022-10-31T09:51:55;18.70;99.90
35603;DHT22;21725;50.836;4.368;2022-10-31T09:57:35;18.80;99.90
35603;DHT22;21725;50.836;4.368;2022-10-31T10:00:06;19.00;99.90
35603;DHT22;21725;50.836;4.368;2022-10-31T10:02:53;19.30;99.90
35603;DHT22;21725;50.836;4.368;2022-10-31T10:05:53;19.30;99.90
35603;DHT22;21725;50.836;4.368;2022-10-31T10:08:30;19.40;99.90
35603;DHT22;21725;50.836;4.368;2022-10-31T10:19:36;19.30;99.90
35603;DHT22;21725;50.836;4.368;2022-10-31T10:30:16;19.50;99.90
35603;DHT22;21725;50.836;4.368;2022-10-31T10:32:49;19.60;99.90
35603;DHT22;21725;50.836;4.368;2022-10-31T10:38:31;19.70;99.90
35603;DHT22;21725;50.836;4.368;2022-10-31T10:41:00;19.70;99.90
35603;DHT22;21725;50.836;4.368;2022-10-31T10:43:37;19.80;99.90
35603;DHT22;21725;50.836;4.368;2022-10-31T10:55:00;19.70;99.90
35603;DHT22;21725;50.836;4.368;2022-10-31T11:02:47;20.10;99.90
35603;DHT22;21725;50.836;4.368;2022-10-31T11:05:54;20.00;99.90
35603;DHT22;21725;50.836;4.368;2022-10-31T11:14:20;19.70;99.90
35603;DHT22;21725;50.836;4.368;2022-10-31T11:16:49;19.70;99.90
35603;DHT22;21725;50.836;4.368;2022-10-31T11:19:23;19.90;99.90
35603;DHT22;21725;50.836;4.368;2022-10-31T11:21:53;19.90;99.90
35603;DHT22;21725;50.836;4.368;2022-10-31T11:24:25;19.80;99.90
35603;DHT22;21725;50.836;4.368;2022-10-31T11:27:23;19.70;99.90
35603;DHT22;21725;50.836;4.368;2022-10-31T11:29:49;19.80;99.90
35603;DHT22;21725;50.836;4.368;2022-10-31T11:32:26;20.10;99.90
35603;DHT22;21725;50.836;4.368;2022-10-31T11:34:54;20.00;99.90
35603;DHT22;21725;50.836;4.368;2022-10-31T11:37:29;20.10;99.90
35603;DHT22;21725;50.836;4.368;2022-10-31T11:39:59;20.10;99.90
35603;DHT22;21725;50.836;4.368;2022-10-31T11:42:37;20.20;99.90
35603;DHT22;21725;50.836;4.368;2022-10-31T11:45:15;20.20;99.90
35603;DHT22;21725;50.836;4.368;2022-10-31T11:47:52;20.20;99.90
35603;DHT22;21725;50.836;4.368;2022-10-31T11:52:56;20.30;99.90
35603;DHT22;21725;50.836;4.368;2022-10-31T11:55:40;20.10;99.90
35603;DHT22;21725;50.836;4.368;2022-10-31T11:58:25;20.30;99.90
35603;DHT22;21725;50.836;4.368;2022-10-31T12:00:54;20.30;99.90
35603;DHT22;21725;50.836;4.368;2022-10-31T12:06:07;20.40;99.90
35603;DHT22;21725;50.836;4.368;2022-10-31T12:08:38;20.40;99.90
35603;DHT22;21725;50.836;4.368;2022-10-31T12:16:54;20.20;99.90
35603;DHT22;21725;50.836;4.368;2022-10-31T12:19:57;20.30;99.90
35603;DHT22;21725;50.836;4.368;2022-10-31T12:23:01;20.20;99.90
35603;DHT22;21725;50.836;4.368;2022-10-31T12:25:51;20.30;99.90
35603;DHT22;21725;50.836;4.368;2022-10-31T12:39:29;20.70;99.90
35603;DHT22;21725;50.836;4.368;2022-10-31T12:44:30;21.00;99.90
35603;DHT22;21725;50.836;4.368;2022-10-31T12:55:40;21.20;99.30
35603;DHT22;21725;50.836;4.368;2022-10-31T12:58:29;21.20;99.30
35603;DHT22;21725;50.836;4.368;2022-10-31T13:01:21;21.20;99.10
35603;DHT22;21725;50.836;4.368;2022-10-31T13:04:16;21.20;99.60
35603;DHT22;21725;50.836;4.368;2022-10-31T13:06:55;21.30;99.30
35603;DHT22;21725;50.836;4.368;2022-10-31T13:09:34;21.30;99.10
35603;DHT22;21725;50.836;4.368;2022-10-31T13:12:08;21.40;98.80
35603;DHT22;21725;50.836;4.368;2022-10-31T13:14:40;21.30;98.70
35603;DHT22;21725;50.836;4.368;2022-10-31T13:17:17;21.30;98.60
35603;DHT22;21725;50.836;4.368;2022-10-31T13:19:46;21.40;98.60
35603;DHT22;21725;50.836;4.368;2022-10-31T13:27:21;21.10;99.10
35603;DHT22;21725;50.836;4.368;2022-10-31T13:30:02;21.10;99.00
35603;DHT22;21725;50.836;4.368;2022-10-31T13:45:59;21.20;98.90
35603;DHT22;21725;50.836;4.368;2022-10-31T13:50:59;21.10;99.20
35603;DHT22;21725;50.836;4.368;2022-10-31T13:56:25;21.00;99.30
35603;DHT22;21725;50.836;4.368;2022-10-31T14:01:33;20.90;99.70
35603;DHT22;21725;50.836;4.368;2022-10-31T14:04:07;21.00;99.80
35603;DHT22;21725;50.836;4.368;2022-10-31T14:09:36;21.00;99.80
35603;DHT22;21725;50.836;4.368;2022-10-31T14:12:06;20.90;99.90
35603;DHT22;21725;50.836;4.368;2022-10-31T14:18:04;21.10;99.30
35603;DHT22;21725;50.836;4.368;2022-10-31T14:20:43;21.30;98.90
35603;DHT22;21725;50.836;4.368;2022-10-31T14:28:55;21.40;98.60
35603;DHT22;21725;50.836;4.368;2022-10-31T14:31:39;21.40;98.50
35603;DHT22;21725;50.836;4.368;2022-10-31T14:34:30;21.40;98.20
35603;DHT22;21725;50.836;4.368;2022-10-31T14:51:36;21.20;97.40
35603;DHT22;21725;50.836;4.368;2022-10-31T14:54:05;21.30;97.60
35603;DHT22;21725;50.836;4.368;2022-10-31T14:56:54;21.20;98.00
35603;DHT22;21725;50.836;4.368;2022-10-31T14:59:36;21.20;97.70
35603;DHT22;21725;50.836;4.368;2022-10-31T15:05:00;21.30;97.80
35603;DHT22;21725;50.836;4.368;2022-10-31T15:07:27;21.40;97.40
35603;DHT22;21725;50.836;4.368;2022-10-31T15:10:20;21.30;97.70
35603;DHT22;21725;50.836;4.368;2022-10-31T15:13:00;21.20;97.90
35603;DHT22;21725;50.836;4.368;2022-10-31T15:18:50;21.00;98.40
35603;DHT22;21725;50.836;4.368;2022-10-31T15:21:26;21.00;98.40
35603;DHT22;21725;50.836;4.368;2022-10-31T15:24:04;20.90;98.70
35603;DHT22;21725;50.836;4.368;2022-10-31T15:26:37;20.70;99.20
35603;DHT22;21725;50.836;4.368;2022-10-31T15:29:19;20.60;99.50
35603;DHT22;21725;50.836;4.368;2022-10-31T15:31:55;20.60;99.70
35603;DHT22;21725;50.836;4.368;2022-10-31T15:36:57;20.60;99.70
35603;DHT22;21725;50.836;4.368;2022-10-31T15:39:23;20.60;99.80
35603;DHT22;21725;50.836;4.368;2022-10-31T15:41:52;20.70;99.90
35603;DHT22;21725;50.836;4.368;2022-10-31T15:45:33;20.60;99.90
35603;DHT22;21725;50.836;4.368;2022-10-31T15:47:38;20.50;99.90
35603;DHT22;21725;50.836;4.368;2022-10-31T15:50:32;20.50;99.90
35603;DHT22;21725;50.836;4.368;2022-10-31T15:53:05;20.30;99.90
35603;DHT22;21725;50.836;4.368;2022-10-31T15:55:48;20.20;99.90
35603;DHT22;21725;50.836;4.368;2022-10-31T15:58:18;20.20;99.90
35603;DHT22;21725;50.836;4.368;2022-10-31T16:01:00;20.10;99.90
35603;DHT22;21725;50.836;4.368;2022-10-31T16:03:29;20.20;99.90
35603;DHT22;21725;50.836;4.368;2022-10-31T16:05:57;20.20;99.90
35603;DHT22;21725;50.836;4.368;2022-10-31T16:08:34;20.10;99.90
35603;DHT22;21725;50.836;4.368;2022-10-31T16:13:34;20.10;99.90
35603;DHT22;21725;50.836;4.368;2022-10-31T16:16:14;20.10;99.90
35603;DHT22;21725;50.836;4.368;2022-10-31T16:18:49;20.20;99.90
35603;DHT22;21725;50.836;4.368;2022-10-31T16:21:28;20.10;99.90
35603;DHT22;21725;50.836;4.368;2022-10-31T16:23:59;19.90;99.90
35603;DHT22;21725;50.836;4.368;2022-10-31T16:26:26;20.10;99.90
35603;DHT22;21725;50.836;4.368;2022-10-31T16:28:55;20.00;99.90
35603;DHT22;21725;50.836;4.368;2022-10-31T16:31:37;20.00;99.90
35603;DHT22;21725;50.836;4.368;2022-10-31T16:34:25;19.90;99.90
35603;DHT22;21725;50.836;4.368;2022-10-31T16:36:53;19.90;99.90
35603;DHT22;21725;50.836;4.368;2022-10-31T16:39:28;20.10;99.90
35603;DHT22;21725;50.836;4.368;2022-10-31T16:41:58;20.00;99.90
35603;DHT22;21725;50.836;4.368;2022-10-31T16:44:26;20.00;99.90
35603;DHT22;21725;50.836;4.368;2022-10-31T16:47:16;19.90;99.90
35603;DHT22;21725;50.836;4.368;2022-10-31T16:49:43;19.80;99.90
35603;DHT22;21725;50.836;4.368;2022-10-31T16:52:20;19.80;99.90
35603;DHT22;21725;50.836;4.368;2022-10-31T16:54:48;19.80;99.90
35603;DHT22;21725;50.836;4.368;2022-10-31T16:57:17;19.80;99.90
35603;DHT22;21725;50.836;4.368;2022-10-31T16:59:48;19.80;99.90
35603;DHT22;21725;50.836;4.368;2022-10-31T17:02:16;19.60;99.90
35603;DHT22;21725;50.836;4.368;2022-10-31T17:04:43;19.70;99.90
35603;DHT22;21725;50.836;4.368;2022-10-31T17:07:09;19.80;99.90
35603;DHT22;21725;50.836;4.368;2022-10-31T17:09:40;19.70;99.90
35603;DHT22;21725;50.836;4.368;2022-10-31T17:12:09;19.70;99.90
35603;DHT22;21725;50.836;4.368;2022-10-31T17:14:40;19.70;99.90
35603;DHT22;21725;50.836;4.368;2022-10-31T17:17:08;19.70;99.90
35603;DHT22;21725;50.836;4.368;2022-10-31T17:19:34;19.70;99.90
35603;DHT22;21725;50.836;4.368;2022-10-31T17:22:11;19.60;99.60
35603;DHT22;21725;50.836;4.368;2022-10-31T17:24:42;19.60;99.60
35603;DHT22;21725;50.836;4.368;2022-10-31T17:27:08;19.60;99.20
35603;DHT22;21725;50.836;4.368;2022-10-31T17:29:34;19.50;99.40
35603;DHT22;21725;50.836;4.368;2022-10-31T17:32:00;19.50;99.10
35603;DHT22;21725;50.836;4.368;2022-10-31T17:34:28;19.50;99.20
35603;DHT22;21725;50.836;4.368;2022-10-31T17:36:54;19.50;99.10
35603;DHT22;21725;50.836;4.368;2022-10-31T17:39:20;19.50;99.00
35603;DHT22;21725;50.836;4.368;2022-10-31T17:41:51;19.50;99.10
35603;DHT22;21725;50.836;4.368;2022-10-31T17:44:17;19.50;98.90
35603;DHT22;21725;50.836;4.368;2022-10-31T17:46:46;19.50;98.90
35603;DHT22;21725;50.836;4.368;2022-10-31T17:49:14;19.50;98.90
35603;DHT22;21725;50.836;4.368;2022-10-31T17:51:43;19.50;98.90
35603;DHT22;21725;50.836;4.368;2022-10-31T17:54:09;19.40;99.00
35603;DHT22;21725;50.836;4.368;2022-10-31T17:56:42;19.50;98.90
35603;DHT22;21725;50.836;4.368;2022-10-31T17:59:17;19.40;99.00
35603;DHT22;21725;50.836;4.368;2022-10-31T18:01:45;19.30;99.20
35603;DHT22;21725;50.836;4.368;2022-10-31T18:04:11;19.30;99.30
35603;DHT22;21725;50.836;4.368;2022-10-31T18:06:37;19.30;99.10
35603;DHT22;21725;50.836;4.368;2022-10-31T18:09:04;19.40;99.10
35603;DHT22;21725;50.836;4.368;2022-10-31T18:11:30;19.20;99.20
35603;DHT22;21725;50.836;4.368;2022-10-31T18:13:57;19.30;99.30
35603;DHT22;21725;50.836;4.368;2022-10-31T18:16:24;19.30;99.30
35603;DHT22;21725;50.836;4.368;2022-10-31T18:18:54;19.30;99.20
35603;DHT22;21725;50.836;4.368;2022-10-31T18:21:20;19.40;99.20
35603;DHT22;21725;50.836;4.368;2022-10-31T18:23:46;19.40;99.10
35603;DHT22;21725;50.836;4.368;2022-10-31T18:26:13;19.30;99.20
35603;DHT22;21725;50.836;4.368;2022-10-31T18:28:38;19.30;99.30
35603;DHT22;21725;50.836;4.368;2022-10-31T18:31:04;19.20;99.80
35603;DHT22;21725;50.836;4.368;2022-10-31T18:33:33;19.30;99.50
35603;DHT22;21725;50.836;4.368;2022-10-31T18:36:04;19.30;99.40
35603;DHT22;21725;50.836;4.368;2022-10-31T18:38:30;19.30;99.40
35603;DHT22;21725;50.836;4.368;2022-10-31T18:40:56;19.30;99.40
35603;DHT22;21725;50.836;4.368;2022-10-31T18:43:22;19.30;99.50
35603;DHT22;21725;50.836;4.368;2022-10-31T18:45:48;19.20;99.70
35603;DHT22;21725;50.836;4.368;2022-10-31T18:48:14;19.10;99.70
35603;DHT22;21725;50.836;4.368;2022-10-31T18:50:41;19.10;99.60
35603;DHT22;21725;50.836;4.368;2022-10-31T18:53:09;19.20;99.50
35603;DHT22;21725;50.836;4.368;2022-10-31T18:55:39;19.30;99.50
35603;DHT22;21725;50.836;4.368;2022-10-31T18:58:05;19.20;99.50